Time;durP1;ratioP1;P1;durP2;ratioP2;P2;SDS_P1;SDS_P2;PMS_P1;PMS_P2;Temp;Humidity;BMP_temperature;BMP_pressure;BME280_temperature;BME280_humidity;BME280_pressure;Samples;Min_cycle;Max_cycle;Signal;HPM_P1;HPM_P2
2023/01/02 00:01:39;;;;;;;26.07;15.63;;;;;;;7.52;59.85;102518.59;5012113;28;20392;-74
2023/01/02 00:04:05;;;;;;;24.42;15.40;;;;;;;7.47;59.51;102508.34;5002247;28;20471;-73
2023/01/02 00:06:35;;;;;;;19.40;12.13;;;;;;;7.37;59.83;102521.34;5010704;28;20724;-73
2023/01/02 00:09:05;;;;;;;18.60;11.55;;;;;;;7.27;59.91;102514.97;4992331;28;20393;-74
2023/01/02 00:11:31;;;;;;;18.23;11.95;;;;;;;7.35;59.63;102511.84;4991443;28;20925;-74
2023/01/02 00:13:56;;;;;;;20.55;12.93;;;;;;;7.37;59.36;102518.69;4990992;28;20386;-73
2023/01/02 00:16:22;;;;;;;80.10;41.93;;;;;;;7.32;59.40;102522.59;4990660;28;20418;-74
2023/01/02 00:18:48;;;;;;;17.48;12.52;;;;;;;7.23;59.44;102530.16;4991370;28;20480;-73
2023/01/02 00:21:13;;;;;;;24.35;14.63;;;;;;;7.18;59.57;102528.78;4992586;28;20378;-74
2023/01/02 00:23:39;;;;;;;16.33;11.52;;;;;;;7.26;59.34;102529.97;4997500;28;20421;-74
2023/01/02 00:26:05;;;;;;;20.35;12.85;;;;;;;7.23;59.54;102529.34;4992064;28;20374;-73
2023/01/02 00:28:30;;;;;;;15.90;10.45;;;;;;;7.23;59.44;102534.63;4992307;28;20432;-73
2023/01/02 00:30:56;;;;;;;13.83;9.73;;;;;;;7.16;59.49;102531.53;4990870;28;20397;-73
2023/01/02 00:33:22;;;;;;;13.13;8.83;;;;;;;7.18;59.10;102534.91;4992646;28;20424;-74
2023/01/02 00:35:48;;;;;;;15.82;9.77;;;;;;;7.12;59.32;102527.41;4993482;28;20688;-73
2023/01/02 00:38:13;;;;;;;13.37;9.27;;;;;;;7.13;59.42;102534.41;4990629;28;20881;-73
2023/01/02 00:40:40;;;;;;;12.30;8.77;;;;;;;7.06;59.22;102528.69;4990998;28;20409;-73
2023/01/02 00:43:05;;;;;;;13.93;8.85;;;;;;;6.99;59.58;102531.84;4991365;28;20385;-73
2023/01/02 00:45:31;;;;;;;14.37;9.67;;;;;;;6.92;59.49;102528.75;4994284;28;20492;-74
2023/01/02 00:47:57;;;;;;;13.95;9.82;;;;;;;6.91;59.63;102536.75;4993655;28;20414;-73
2023/01/02 00:50:22;;;;;;;14.30;9.30;;;;;;;6.83;59.97;102535.47;5007144;28;20919;-73
2023/01/02 00:52:47;;;;;;;13.93;9.07;;;;;;;6.93;59.57;102530.41;5007124;28;20383;-73
2023/01/02 00:55:13;;;;;;;15.30;9.57;;;;;;;6.93;59.58;102533.06;5006974;28;20378;-74
2023/01/02 00:57:38;;;;;;;14.90;9.23;;;;;;;7.01;59.27;102527.28;5008880;28;20411;-73
2023/01/02 01:00:05;;;;;;;16.27;10.37;;;;;;;7.06;58.82;102527.84;5009262;28;20423;-73
2023/01/02 01:02:31;;;;;;;21.47;14.63;;;;;;;7.02;59.15;102524.56;5005343;28;20384;-73
2023/01/02 01:04:56;;;;;;;16.50;10.93;;;;;;;7.00;59.09;102526.44;5006457;28;20376;-73
2023/01/02 01:07:22;;;;;;;13.48;9.40;;;;;;;7.04;58.90;102520.03;5006528;28;20701;-73
2023/01/02 01:09:47;;;;;;;16.87;10.70;;;;;;;7.17;58.57;102519.22;5006497;28;20442;-73
2023/01/02 01:12:13;;;;;;;16.83;11.83;;;;;;;7.21;58.36;102520.69;5006085;28;20401;-74
2023/01/02 01:14:38;;;;;;;20.20;12.50;;;;;;;7.22;58.24;102522.34;5006071;28;20408;-73
2023/01/02 01:17:04;;;;;;;14.88;9.55;;;;;;;7.27;57.83;102525.53;5007848;28;20860;-74
2023/01/02 01:19:34;;;;;;;14.80;10.07;;;;;;;7.06;58.31;102526.03;5011124;28;20387;-74
2023/01/02 01:22:00;;;;;;;15.52;10.73;;;;;;;6.83;59.33;102532.00;5010135;28;20392;-74
2023/01/02 01:24:26;;;;;;;21.48;12.13;;;;;;;6.60;59.86;102534.31;5008412;28;20917;-74
2023/01/02 01:26:51;;;;;;;17.23;11.63;;;;;;;6.61;59.60;102535.16;5010712;28;20372;-73
2023/01/02 01:29:18;;;;;;;14.95;9.85;;;;;;;6.58;60.08;102532.75;5008259;28;20451;-74
2023/01/02 01:31:43;;;;;;;15.15;10.23;;;;;;;6.44;60.17;102521.28;5010754;28;20471;-74
2023/01/02 01:34:12;;;;;;;17.40;11.07;;;;;;;6.38;60.50;102518.22;5008263;28;20425;-74
2023/01/02 01:36:38;;;;;;;18.75;11.57;;;;;;;6.58;59.87;102517.78;5005557;28;20378;-74
2023/01/02 01:39:03;;;;;;;23.30;13.40;;;;;;;6.72;59.06;102524.78;5011460;28;20451;-75
2023/01/02 01:41:29;;;;;;;22.67;12.83;;;;;;;6.72;59.14;102516.88;5008412;28;20748;-74
2023/01/02 01:44:00;;;;;;;21.25;13.10;;;;;;;6.77;58.98;102516.56;5010899;28;20384;-74
2023/01/02 01:46:45;;;;;;;20.88;11.68;;;;;;;6.87;58.51;102515.84;5010483;28;20816;-74
2023/01/02 01:49:15;;;;;;;17.67;10.57;;;;;;;6.88;58.20;102512.28;5010858;28;20391;-74
2023/01/02 01:51:49;;;;;;;12.35;8.82;;;;;;;6.91;58.47;102519.13;5010494;28;20463;-75
2023/01/02 01:54:19;;;;;;;13.05;8.85;;;;;;;6.93;57.94;102503.22;5010506;28;20380;-75
2023/01/02 01:56:50;;;;;;;13.20;9.07;;;;;;;6.79;58.26;102505.00;5008158;28;20386;-74
2023/01/02 01:59:17;;;;;;;27.20;14.52;;;;;;;6.78;58.20;102498.00;5010278;28;20713;-75
2023/01/02 02:01:45;;;;;;;24.60;14.00;;;;;;;6.76;58.29;102504.34;5010153;28;20372;-74
2023/01/02 02:04:11;;;;;;;26.37;14.47;;;;;;;6.89;58.09;102503.41;5010395;28;20383;-73
2023/01/02 02:06:37;;;;;;;40.88;19.05;;;;;;;6.95;57.68;102483.72;5007538;28;20410;-73
2023/01/02 02:09:14;;;;;;;22.08;12.40;;;;;;;7.01;57.20;102490.38;5007528;28;20383;-73
2023/01/02 02:11:41;;;;;;;16.87;10.03;;;;;;;6.93;57.29;102490.03;5009834;28;20824;-74
2023/01/02 02:14:06;;;;;;;14.85;9.68;;;;;;;6.83;57.45;102498.56;5007623;28;20407;-73
2023/01/02 02:16:47;;;;;;;15.57;10.27;;;;;;;6.82;57.62;102496.03;5007485;28;20741;-73
2023/01/02 02:19:35;;;;;;;13.98;9.65;;;;;;;6.80;57.84;102484.75;5010088;28;20394;-73
2023/01/02 02:22:39;;;;;;;17.45;11.88;;;;;;;6.86;57.49;102479.91;5009969;28;20943;-74
2023/01/02 02:25:25;;;;;;;18.23;11.10;;;;;;;6.87;57.74;102486.84;4998546;28;20384;-73
2023/01/02 02:28:23;;;;;;;18.48;11.73;;;;;;;6.80;58.00;102488.22;5010098;28;20408;-73
2023/01/02 02:30:54;;;;;;;14.73;10.60;;;;;;;6.79;57.74;102483.91;5010241;28;20372;-74
2023/01/02 02:33:25;;;;;;;15.52;11.43;;;;;;;6.82;57.67;102485.47;5012625;28;20380;-73
2023/01/02 02:36:23;;;;;;;15.55;10.93;;;;;;;6.86;57.58;102493.09;5010472;28;20462;-74
2023/01/02 02:38:51;;;;;;;16.80;12.10;;;;;;;6.80;57.67;102490.00;5012611;28;20411;-73
2023/01/02 02:41:33;;;;;;;15.80;11.93;;;;;;;6.83;57.54;102503.00;5016442;28;20832;-73
2023/01/02 02:44:36;;;;;;;18.20;12.40;;;;;;;6.84;57.54;102494.13;5015688;28;20388;-73
2023/01/02 02:47:19;;;;;;;14.75;11.40;;;;;;;6.83;57.26;102487.19;5013415;28;20932;-74
2023/01/02 02:49:57;;;;;;;17.90;11.23;;;;;;;6.85;57.24;102490.56;5014225;28;20391;-74
2023/01/02 02:52:28;;;;;;;26.65;16.10;;;;;;;6.81;56.92;102492.56;5015416;28;20372;-74
2023/01/02 02:55:19;;;;;;;29.10;15.83;;;;;;;6.78;57.11;102492.75;5014164;28;20376;-74
2023/01/02 02:57:45;;;;;;;19.73;12.53;;;;;;;6.67;57.41;102493.44;5013893;28;20436;-75
2023/01/02 03:00:18;;;;;;;16.63;10.98;;;;;;;6.45;57.97;102495.81;5014154;28;20376;-75
2023/01/02 03:02:44;;;;;;;12.65;9.13;;;;;;;6.39;58.11;102493.56;5014073;28;20717;-74
2023/01/02 03:05:15;;;;;;;19.00;12.77;;;;;;;6.44;58.26;102484.41;5013771;28;20388;-74
2023/01/02 03:07:57;;;;;;;14.90;9.63;;;;;;;6.55;57.55;102486.34;5014040;28;20523;-74
2023/01/02 03:10:47;;;;;;;114.43;41.95;;;;;;;6.51;57.36;102479.59;5010295;28;20388;-74
2023/01/02 03:13:38;;;;;;;181.30;61.88;;;;;;;6.31;57.88;102476.44;5011835;28;20383;-74
2023/01/02 03:16:09;;;;;;;174.93;53.72;;;;;;;6.30;58.32;102476.53;5010272;28;20416;-74
2023/01/02 03:19:00;;;;;;;22.47;14.40;;;;;;;6.29;58.06;102496.78;5013554;28;20404;-75
2023/01/02 03:21:42;;;;;;;20.83;13.85;;;;;;;6.18;58.99;102493.16;5011303;28;20406;-75
2023/01/02 03:24:11;;;;;;;16.42;10.30;;;;;;;6.17;58.93;102483.56;5013720;28;20404;-74
2023/01/02 03:26:41;;;;;;;24.65;13.48;;;;;;;6.28;58.53;102481.06;5013132;28;20725;-74
2023/01/02 03:29:14;;;;;;;34.55;17.85;;;;;;;6.28;58.54;102470.53;5013309;28;21144;-74
2023/01/02 03:31:43;;;;;;;32.55;16.90;;;;;;;6.37;58.21;102471.75;5013056;28;20411;-74
2023/01/02 03:34:20;;;;;;;105.35;40.85;;;;;;;6.46;57.79;102481.69;5013338;28;20387;-75
2023/01/02 03:36:52;;;;;;;68.15;28.75;;;;;;;6.45;57.61;102488.75;5010292;28;20752;-75
2023/01/02 03:39:19;;;;;;;20.52;13.20;;;;;;;6.45;57.59;102487.91;5013273;28;20438;-75
2023/01/02 03:41:56;;;;;;;183.20;69.20;;;;;;;6.39;57.68;102486.50;5013984;28;20376;-75
2023/01/02 03:44:25;;;;;;;25.23;21.00;;;;;;;6.29;58.14;102488.88;5014344;28;20467;-74
2023/01/02 03:47:04;;;;;;;227.77;88.38;;;;;;;6.26;58.21;102488.22;4996907;28;20507;-73
2023/01/02 03:49:33;;;;;;;30.88;18.95;;;;;;;6.15;59.08;102490.72;5013789;28;20853;-73
2023/01/02 03:51:59;;;;;;;14.27;9.30;;;;;;;6.09;59.03;102489.31;5013969;28;20425;-74
2023/01/02 03:54:26;;;;;;;14.70;10.10;;;;;;;6.13;59.23;102488.16;5014022;28;20392;-73
2023/01/02 03:57:41;;;;;;;15.82;9.95;;;;;;;6.35;58.22;102489.44;5013843;28;20391;-73
2023/01/02 04:00:11;;;;;;;73.53;29.17;;;;;;;6.45;57.65;102490.53;5011726;28;20690;-73
2023/01/02 04:02:42;;;;;;;43.45;20.27;;;;;;;6.43;57.62;102488.00;5013769;28;20688;-74
2023/01/02 04:05:17;;;;;;;106.85;42.42;;;;;;;6.44;57.46;102484.41;5013675;28;20846;-73
2023/01/02 04:08:03;;;;;;;54.53;27.05;;;;;;;6.51;57.52;102482.22;5013505;28;20368;-74
2023/01/02 04:10:29;;;;;;;27.00;15.27;;;;;;;6.47;57.27;102480.75;5013506;28;20392;-74
2023/01/02 04:13:01;;;;;;;26.48;16.35;;;;;;;6.42;57.36;102488.94;5013534;28;20438;-73
2023/01/02 04:15:32;;;;;;;80.88;37.58;;;;;;;6.49;57.43;102499.94;5013416;28;20407;-73
2023/01/02 04:18:36;;;;;;;119.53;50.05;;;;;;;6.42;57.38;102496.00;5013791;28;20419;-74
2023/01/02 04:21:10;;;;;;;148.30;54.67;;;;;;;6.37;57.34;102504.19;4992098;28;20823;-74
2023/01/02 04:23:49;;;;;;;82.82;37.15;;;;;;;6.14;57.84;102503.03;5010938;28;20426;-74
2023/01/02 04:26:17;;;;;;;24.58;16.35;;;;;;;6.11;58.03;102500.59;5014728;28;20705;-74
2023/01/02 04:28:42;;;;;;;46.15;24.23;;;;;;;6.20;58.28;102501.81;5015392;28;20380;-74
2023/01/02 04:31:14;;;;;;;26.88;16.08;;;;;;;6.28;57.35;102496.88;5013462;28;20446;-74
2023/01/02 04:33:48;;;;;;;145.68;53.63;;;;;;;6.10;58.11;102506.78;5013423;28;20376;-74
2023/01/02 04:36:15;;;;;;;26.15;16.23;;;;;;;6.11;57.83;102500.59;5013622;28;20855;-75
2023/01/02 04:38:42;;;;;;;50.25;24.98;;;;;;;6.12;58.03;102499.63;5012985;28;20407;-74
2023/01/02 04:41:08;;;;;;;125.35;55.22;;;;;;;6.01;57.82;102502.94;5013068;28;20844;-74
2023/01/02 04:43:34;;;;;;;61.17;31.70;;;;;;;6.08;58.11;102504.25;5013568;28;20375;-74
2023/01/02 04:45:59;;;;;;;30.23;18.73;;;;;;;6.14;57.35;102497.78;5014897;28;20423;-74
2023/01/02 04:48:25;;;;;;;43.08;24.02;;;;;;;6.10;57.53;102497.13;5012276;28;20446;-74
2023/01/02 04:50:53;;;;;;;24.27;15.40;;;;;;;6.11;57.49;102496.16;5012286;28;20376;-74
2023/01/02 04:53:19;;;;;;;31.38;20.30;;;;;;;6.19;57.09;102500.09;5011744;28;20380;-74
2023/01/02 04:55:44;;;;;;;36.92;22.85;;;;;;;6.10;57.02;102506.78;5011935;28;20387;-74
2023/01/02 04:58:10;;;;;;;58.30;28.67;;;;;;;6.08;57.56;102516.56;5011779;28;20566;-74
2023/01/02 05:00:35;;;;;;;26.80;17.30;;;;;;;6.03;57.84;102519.50;5010662;28;20407;-74
2023/01/02 05:03:02;;;;;;;33.03;29.57;;;;;;;6.14;57.45;102505.66;5011232;28;20383;-74
2023/01/02 05:05:28;;;;;;;26.87;21.67;;;;;;;6.18;56.99;102506.31;5011318;28;20509;-74
2023/01/02 05:07:53;;;;;;;35.30;31.57;;;;;;;6.24;57.10;102501.50;5011367;28;20467;-74
2023/01/02 05:10:19;;;;;;;39.20;35.17;;;;;;;6.15;57.13;102504.72;5011895;28;20531;-73
2023/01/02 05:12:44;;;;;;;28.35;18.88;;;;;;;6.07;57.44;102504.38;5011864;28;20821;-74
2023/01/02 05:15:11;;;;;;;34.17;22.83;;;;;;;6.14;57.13;102503.03;5011685;28;20764;-74
2023/01/02 05:17:38;;;;;;;32.75;19.10;;;;;;;6.17;56.83;102512.50;5011626;28;20740;-73
2023/01/02 05:20:06;;;;;;;34.90;20.38;;;;;;;6.17;57.16;102505.44;5011501;28;20376;-74
2023/01/02 05:25:15;;;;;;;31.88;19.20;;;;;;;6.12;57.14;102499.63;5011726;28;20797;-74
2023/01/02 05:27:41;;;;;;;24.80;15.65;;;;;;;6.15;57.14;102514.41;5011460;28;20902;-74
2023/01/02 05:30:08;;;;;;;26.27;17.13;;;;;;;6.15;57.04;102525.78;5011520;28;20376;-74
2023/01/02 05:32:33;;;;;;;22.90;15.65;;;;;;;6.10;57.01;102519.94;5011457;28;20387;-74
2023/01/02 05:34:58;;;;;;;20.77;15.20;;;;;;;6.14;57.27;102518.84;5011387;28;20376;-74
2023/01/02 05:37:24;;;;;;;24.10;16.67;;;;;;;6.13;56.60;102525.03;5011352;28;20935;-74
2023/01/02 05:39:50;;;;;;;28.08;17.95;;;;;;;6.15;56.49;102527.56;5010467;28;20482;-75
2023/01/02 05:42:15;;;;;;;30.92;19.67;;;;;;;6.16;56.83;102524.84;5011296;28;20392;-74
2023/01/02 05:44:41;;;;;;;37.37;21.17;;;;;;;6.19;56.42;102526.44;5010709;28;20380;-74
2023/01/02 05:47:06;;;;;;;35.27;22.17;;;;;;;6.20;56.59;102525.50;5011060;28;20500;-74
2023/01/02 05:49:31;;;;;;;31.83;20.73;;;;;;;6.14;56.87;102532.00;5010886;28;20384;-74
2023/01/02 05:51:57;;;;;;;31.77;21.83;;;;;;;6.10;57.01;102518.19;5010656;28;20395;-73
2023/01/02 05:54:22;;;;;;;33.07;21.97;;;;;;;6.06;56.75;102524.56;5010036;28;20376;-74
2023/01/02 05:56:48;;;;;;;28.73;20.17;;;;;;;6.03;56.82;102529.16;5009906;28;20445;-74
2023/01/02 05:59:14;;;;;;;33.00;21.33;;;;;;;5.87;57.42;102535.38;5011071;28;20371;-74
2023/01/02 06:01:40;;;;;;;30.38;21.45;;;;;;;5.80;57.27;102530.56;5009979;28;20388;-74
2023/01/02 06:04:05;;;;;;;28.07;19.87;;;;;;;5.75;57.72;102530.84;5010957;28;20481;-74
2023/01/02 06:06:34;;;;;;;27.02;19.58;;;;;;;5.73;58.17;102538.00;5010860;28;20387;-74
2023/01/02 06:09:00;;;;;;;22.98;17.70;;;;;;;5.66;58.39;102539.31;5011015;28;20458;-74
2023/01/02 06:11:26;;;;;;;27.77;18.70;;;;;;;5.73;57.89;102535.38;5010766;28;20860;-73
2023/01/02 06:13:53;;;;;;;27.38;19.30;;;;;;;5.88;57.90;102546.72;5010579;28;20479;-74
2023/01/02 06:16:19;;;;;;;26.57;17.13;;;;;;;5.93;57.58;102545.50;5010698;28;20549;-74
2023/01/02 06:18:44;;;;;;;26.27;18.33;;;;;;;5.92;57.86;102551.72;5012851;28;20868;-73
2023/01/02 06:21:12;;;;;;;29.67;21.17;;;;;;;5.98;57.08;102550.53;5011225;28;20376;-74
2023/01/02 06:23:38;;;;;;;30.38;20.88;;;;;;;6.00;57.13;102560.97;5010719;28;20368;-74
2023/01/02 06:26:16;;;;;;;30.50;21.38;;;;;;;5.98;57.37;102560.19;5010640;28;20874;-74
2023/01/02 06:28:42;;;;;;;33.88;21.88;;;;;;;6.03;56.91;102566.91;5010648;28;20408;-75
2023/01/02 06:31:13;;;;;;;31.17;22.67;;;;;;;5.99;56.71;102559.25;5010458;28;20776;-74
2023/01/02 06:33:39;;;;;;;37.88;24.45;;;;;;;5.99;57.16;102567.16;5010637;28;20376;-72
2023/01/02 06:36:11;;;;;;;33.08;24.10;;;;;;;6.00;57.49;102569.72;5011343;28;20376;-73
2023/01/02 06:38:37;;;;;;;31.88;23.73;;;;;;;5.98;57.30;102573.34;5012399;28;20418;-74
2023/01/02 06:41:03;;;;;;;37.95;26.63;;;;;;;5.98;57.36;102571.59;5010663;28;20380;-74
2023/01/02 06:43:29;;;;;;;36.75;26.92;;;;;;;5.99;57.57;102567.16;5010643;28;20376;-74
2023/01/02 06:46:03;;;;;;;42.28;26.60;;;;;;;6.01;57.43;102573.19;5010465;28;20825;-74
2023/01/02 06:48:31;;;;;;;41.00;26.27;;;;;;;6.02;57.77;102567.81;5010541;28;20401;-74
2023/01/02 06:50:58;;;;;;;30.40;19.83;;;;;;;5.92;57.86;102566.66;5009933;28;20384;-74
2023/01/02 06:53:27;;;;;;;25.00;18.15;;;;;;;5.93;57.72;102563.09;5010809;28;20378;-73
2023/01/02 06:55:54;;;;;;;30.33;19.77;;;;;;;6.02;57.94;102572.25;5010435;28;20392;-74
2023/01/02 06:58:20;;;;;;;31.93;22.30;;;;;;;6.12;57.54;102571.59;5010242;28;20399;-74
2023/01/02 07:00:46;;;;;;;24.15;16.08;;;;;;;6.23;57.79;102575.31;5010463;28;20368;-75
2023/01/02 07:03:12;;;;;;;20.95;14.30;;;;;;;6.27;57.49;102566.31;5010310;28;20391;-74
2023/01/02 07:05:37;;;;;;;19.35;13.65;;;;;;;6.31;57.73;102568.63;5009791;28;20376;-75
2023/01/02 07:08:03;;;;;;;23.30;17.65;;;;;;;6.29;57.99;102565.25;5009113;28;20369;-74
2023/01/02 07:10:28;;;;;;;26.23;19.67;;;;;;;6.31;57.91;102576.53;5010161;28;20445;-74
2023/01/02 07:12:54;;;;;;;28.63;21.27;;;;;;;6.40;57.78;102572.47;5009432;28;20364;-74
2023/01/02 07:15:19;;;;;;;27.13;19.90;;;;;;;6.45;57.27;102583.56;5010379;28;20482;-75
2023/01/02 07:17:45;;;;;;;31.58;22.10;;;;;;;6.24;58.27;102575.22;5010545;28;20469;-74
2023/01/02 07:20:11;;;;;;;38.30;26.03;;;;;;;6.37;58.26;102580.56;5009996;28;20387;-74
2023/01/02 07:22:36;;;;;;;29.87;21.57;;;;;;;6.52;57.45;102565.59;5010251;28;20384;-75
2023/01/02 07:25:02;;;;;;;31.37;22.73;;;;;;;6.67;57.59;102576.94;5011769;28;20422;-74
2023/01/02 07:27:29;;;;;;;32.00;23.75;;;;;;;6.79;57.27;102580.56;5014135;28;20403;-74
2023/01/02 07:29:54;;;;;;;30.00;21.90;;;;;;;6.76;57.19;102568.44;5012998;28;20376;-75
2023/01/02 07:32:20;;;;;;;37.35;27.77;;;;;;;6.75;57.22;102569.38;5013818;28;20380;-73
2023/01/02 07:34:45;;;;;;;38.53;27.97;;;;;;;6.85;57.16;102577.53;5013364;28;20450;-74
2023/01/02 07:37:11;;;;;;;49.15;33.08;;;;;;;6.95;56.94;102578.66;5013602;28;20439;-74
2023/01/02 07:39:36;;;;;;;44.77;31.27;;;;;;;6.76;57.42;102575.50;5012302;28;20423;-73
2023/01/02 07:42:02;;;;;;;45.70;29.50;;;;;;;6.66;58.16;102581.38;5011451;28;20392;-74
2023/01/02 07:44:27;;;;;;;43.65;29.05;;;;;;;6.74;57.95;102577.41;5012646;28;20384;-73
2023/01/02 07:46:53;;;;;;;29.20;21.13;;;;;;;6.80;57.77;102577.00;5012534;28;20446;-74
2023/01/02 07:49:18;;;;;;;42.43;27.03;;;;;;;6.96;57.39;102572.41;5012017;28;20380;-73
2023/01/02 07:51:44;;;;;;;35.63;22.47;;;;;;;7.07;57.31;102566.44;5012908;28;20376;-73
2023/01/02 07:54:09;;;;;;;27.65;17.85;;;;;;;7.07;57.14;102577.81;5013676;28;20376;-74
2023/01/02 07:56:35;;;;;;;31.80;19.57;;;;;;;6.99;57.94;102576.66;5013599;28;20470;-74
2023/01/02 07:59:00;;;;;;;21.93;16.00;;;;;;;6.96;58.09;102575.03;5013652;28;20399;-74
2023/01/02 08:01:26;;;;;;;20.13;15.50;;;;;;;7.05;58.07;102574.44;5013143;28;20457;-75
2023/01/02 08:03:51;;;;;;;18.95;14.60;;;;;;;7.09;57.93;102580.34;5013693;28;20383;-74
2023/01/02 08:06:17;;;;;;;18.43;13.50;;;;;;;7.23;57.91;102577.66;5013525;28;20399;-74
2023/01/02 08:08:43;;;;;;;16.55;12.90;;;;;;;7.35;57.54;102583.09;5013578;28;20376;-74
2023/01/02 08:11:17;;;;;;;15.40;12.05;;;;;;;7.38;57.58;102581.09;5013482;28;20368;-73
2023/01/02 08:13:43;;;;;;;17.42;12.90;;;;;;;7.45;57.21;102585.00;5016815;28;20364;-74
2023/01/02 08:16:20;;;;;;;19.65;14.02;;;;;;;7.52;57.62;102577.50;5012889;28;20519;-73
2023/01/02 08:18:46;;;;;;;17.80;13.80;;;;;;;7.69;57.17;102580.78;5013219;28;20400;-73
2023/01/02 08:21:11;;;;;;;25.90;17.80;;;;;;;7.83;57.31;102588.59;5013271;28;20442;-74
2023/01/02 08:23:37;;;;;;;28.57;20.00;;;;;;;7.87;57.02;102590.09;5013305;28;20388;-74
2023/01/02 08:26:05;;;;;;;31.83;23.00;;;;;;;7.90;57.24;102587.22;5012985;28;20588;-73
2023/01/02 08:28:31;;;;;;;36.35;25.73;;;;;;;7.96;57.54;102584.16;5012709;28;20380;-74
2023/01/02 08:30:57;;;;;;;40.42;27.45;;;;;;;8.11;57.40;102597.25;5013401;28;20392;-74
2023/01/02 08:33:23;;;;;;;38.78;28.55;;;;;;;8.17;57.19;102596.81;5016099;28;20784;-74
2023/01/02 08:35:48;;;;;;;42.85;31.23;;;;;;;8.23;57.44;102580.53;5013741;28;20475;-74
2023/01/02 08:38:14;;;;;;;43.10;30.83;;;;;;;8.31;57.20;102583.47;5012516;28;20875;-75
2023/01/02 08:40:39;;;;;;;47.43;35.70;;;;;;;8.40;57.14;102587.25;5011871;28;20384;-74
2023/01/02 08:43:06;;;;;;;52.23;38.33;;;;;;;8.49;56.81;102583.16;5011831;28;20462;-74
2023/01/02 08:45:32;;;;;;;54.22;40.63;;;;;;;8.54;57.00;102576.56;5011561;28;20527;-74
2023/01/02 08:47:57;;;;;;;55.45;39.63;;;;;;;8.60;57.08;102581.41;5011925;28;20474;-75
2023/01/02 08:50:23;;;;;;;52.50;38.58;;;;;;;8.71;56.76;102575.34;5010924;28;20843;-73
2023/01/02 08:52:48;;;;;;;50.43;37.40;;;;;;;8.79;56.81;102566.88;5011298;28;20884;-74
2023/01/02 08:55:14;;;;;;;42.10;32.55;;;;;;;8.89;57.26;102569.66;5011712;28;20867;-74
2023/01/02 08:57:39;;;;;;;41.17;30.85;;;;;;;8.98;56.49;102561.03;5010921;28;20411;-73
2023/01/02 09:00:05;;;;;;;39.47;28.57;;;;;;;9.06;56.94;102561.34;5011094;28;20813;-75
2023/01/02 09:02:33;;;;;;;34.97;25.48;;;;;;;9.14;56.58;102566.88;5009936;28;20422;-73
2023/01/02 09:04:58;;;;;;;30.02;22.55;;;;;;;9.25;56.60;102557.31;5012650;28;20380;-75
2023/01/02 09:07:24;;;;;;;32.70;23.13;;;;;;;9.34;56.53;102560.06;5012095;28;20460;-74
2023/01/02 09:09:50;;;;;;;23.10;16.50;;;;;;;9.35;56.51;102545.91;5010707;28;20372;-75
2023/01/02 09:12:15;;;;;;;19.95;14.15;;;;;;;9.41;56.31;102551.69;5009856;28;20392;-74
2023/01/02 09:14:41;;;;;;;19.40;14.88;;;;;;;9.51;56.85;102534.16;5009657;28;20713;-74
2023/01/02 09:17:06;;;;;;;19.00;14.40;;;;;;;9.63;56.42;102535.00;5010599;28;20713;-74
2023/01/02 09:19:32;;;;;;;17.97;14.13;;;;;;;9.65;56.66;102533.06;5008942;28;20729;-75
2023/01/02 09:22:00;;;;;;;18.63;14.52;;;;;;;9.78;56.56;102525.88;5009728;28;20856;-74
2023/01/02 09:24:26;;;;;;;18.35;14.63;;;;;;;9.90;56.27;102542.59;5009526;28;20399;-74
2023/01/02 09:26:52;;;;;;;17.80;14.18;;;;;;;9.92;56.26;102527.41;5013519;28;20384;-75
2023/01/02 09:29:18;;;;;;;19.58;14.82;;;;;;;9.98;56.35;102516.34;5007406;28;20404;-74
2023/01/02 09:31:44;;;;;;;20.52;16.00;;;;;;;10.10;56.20;102517.16;5007150;28;20407;-75
2023/01/02 09:34:10;;;;;;;19.80;15.30;;;;;;;10.23;56.23;102506.44;5008710;28;20558;-75
2023/01/02 09:36:36;;;;;;;19.98;16.05;;;;;;;10.34;55.71;102503.78;5008618;28;20387;-74
2023/01/02 09:39:03;;;;;;;22.92;16.27;;;;;;;10.45;55.73;102493.16;5007155;28;20773;-74
2023/01/02 09:41:39;;;;;;;18.27;15.20;;;;;;;10.64;55.68;102488.97;5008523;28;20380;-75
2023/01/02 09:44:10;;;;;;;20.07;15.63;;;;;;;10.75;55.28;102491.59;5008216;28;20439;-74
2023/01/02 09:46:35;;;;;;;22.33;15.93;;;;;;;10.80;55.68;102480.59;5007714;28;20491;-74
2023/01/02 09:49:02;;;;;;;19.73;15.65;;;;;;;10.94;55.66;102480.28;5013061;28;20440;-73
2023/01/02 09:51:29;;;;;;;20.70;15.20;;;;;;;11.04;55.38;102478.53;5014580;28;21220;-74
2023/01/02 09:53:55;;;;;;;20.27;15.38;;;;;;;11.12;55.34;102475.22;5013340;28;20369;-74
2023/01/02 09:56:23;;;;;;;17.57;14.60;;;;;;;11.14;55.29;102470.63;5015174;28;20391;-74
2023/01/02 09:59:00;;;;;;;22.00;16.52;;;;;;;11.22;55.45;102468.19;5008282;28;20495;-74
2023/01/02 10:01:26;;;;;;;22.08;16.50;;;;;;;11.27;55.50;102462.47;5007931;28;20384;-75
2023/01/02 10:04:00;;;;;;;59.17;40.70;;;;;;;11.35;55.14;102461.81;5006459;28;20376;-76
2023/01/02 10:06:40;;;;;;;21.08;15.82;;;;;;;11.38;55.18;102450.91;5008600;28;20380;-73
2023/01/02 10:09:09;;;;;;;28.93;21.17;;;;;;;11.46;55.07;102461.72;5008534;28;20376;-74
2023/01/02 10:11:42;;;;;;;36.00;22.33;;;;;;;11.51;55.20;102450.72;5005310;28;20467;-74
2023/01/02 10:14:33;;;;;;;35.13;25.48;;;;;;;11.64;55.07;102438.03;5005224;28;20380;-74
2023/01/02 10:17:01;;;;;;;43.53;30.70;;;;;;;11.69;55.07;102435.81;5004871;28;20420;-73
2023/01/02 10:19:48;;;;;;;24.65;17.60;;;;;;;11.79;54.98;102439.34;5005308;28;20400;-73
2023/01/02 10:22:19;;;;;;;22.52;15.10;;;;;;;11.84;55.09;102438.94;5007025;28;20446;-74
2023/01/02 10:25:04;;;;;;;22.35;15.80;;;;;;;11.89;55.07;102430.56;5009106;28;20396;-73
2023/01/02 10:27:37;;;;;;;27.30;18.33;;;;;;;11.97;54.81;102431.56;5006077;28;20458;-75
2023/01/02 10:30:13;;;;;;;20.58;15.63;;;;;;;12.00;54.94;102423.34;5007438;28;20856;-75
2023/01/02 10:32:45;;;;;;;20.17;14.63;;;;;;;12.11;55.09;102427.69;5007607;28;20391;-75
2023/01/02 10:35:25;;;;;;;22.70;15.57;;;;;;;12.13;54.73;102415.09;5004869;28;20404;-74
2023/01/02 10:37:53;;;;;;;22.15;15.38;;;;;;;12.22;54.85;102410.78;5004497;28;20420;-74
2023/01/02 10:40:19;;;;;;;19.45;14.27;;;;;;;12.27;54.96;102413.03;5005408;28;20392;-74
2023/01/02 10:42:53;;;;;;;19.35;14.52;;;;;;;12.36;54.63;102409.53;5004791;28;20446;-75
2023/01/02 10:45:18;;;;;;;20.50;14.63;;;;;;;12.35;54.82;102406.03;5038606;28;20486;-75
2023/01/02 10:47:45;;;;;;;17.33;13.68;;;;;;;12.40;54.74;102403.75;5009444;28;20838;-74
2023/01/02 10:50:19;;;;;;;18.30;14.25;;;;;;;12.49;54.77;102393.28;5006224;28;20386;-73
2023/01/02 10:52:51;;;;;;;17.98;14.10;;;;;;;12.50;54.53;102394.97;5010692;28;20932;-74
2023/01/02 10:55:36;;;;;;;16.08;12.82;;;;;;;12.53;54.82;102390.22;5009473;28;20400;-73
2023/01/02 10:58:05;;;;;;;16.85;12.52;;;;;;;12.53;54.97;102387.53;5004593;28;20408;-74
2023/01/02 11:00:33;;;;;;;17.23;13.20;;;;;;;12.58;55.02;102382.63;5003224;28;20485;-74
2023/01/02 11:03:07;;;;;;;19.17;14.70;;;;;;;12.69;54.67;102378.97;5012503;28;20761;-74
2023/01/02 11:05:32;;;;;;;21.02;15.60;;;;;;;12.85;54.37;102390.84;5001177;28;20390;-73
2023/01/02 11:07:58;;;;;;;19.90;15.00;;;;;;;12.91;54.34;102385.78;4999753;28;20397;-73
2023/01/02 11:10:42;;;;;;;26.27;21.13;;;;;;;12.96;54.38;102372.91;5000676;28;20393;-75
2023/01/02 11:13:09;;;;;;;21.83;16.48;;;;;;;13.06;54.01;102362.19;5001042;28;20418;-75
2023/01/02 11:15:55;;;;;;;17.92;10.30;;;;;;;13.20;56.92;102363.56;4997738;28;20405;-76
2023/01/02 11:18:27;;;;;;;28.57;21.30;;;;;;;13.34;56.05;102341.78;4994768;28;20515;-77
2023/01/02 11:21:02;;;;;;;13.18;10.68;;;;;;;13.67;57.46;102342.16;5001873;28;20455;-75
2023/01/02 11:23:32;;;;;;;19.10;13.90;;;;;;;14.34;57.00;102339.91;5000921;28;20456;-75
2023/01/02 11:25:58;;;;;;;21.77;17.90;;;;;;;14.18;54.92;102333.63;5002493;28;20430;-76
2023/01/02 11:28:30;;;;;;;23.00;18.60;;;;;;;13.98;54.46;102338.28;4996692;28;20394;-75
2023/01/02 11:31:10;;;;;;;22.38;17.83;;;;;;;14.12;55.22;102338.59;5011461;28;20396;-76